Flight Track Log - Related Links

Times and Time Zones

All times are in EDT time to prevent confusion due to time zone crossing. See the SWA484 flight status page for this flight to view local times or setup timezone preferences in your user account.


Time Position Orientation Groundspeed Altitude Reporting Facility
EDT Latitude Longitude Course Direction KTS MPH feet Rate Location/Type
Sat 12:25:17 PM 36.0764 -115.1203 91° East 173 199 2,900  Level Los Angeles Center
Sat 12:26:30 PM 36.0753 -115.0356 91° East 220 253 5,100 1,897 Climbing Los Angeles Center
Sat 12:27:14 PM 36.0750 -114.9767 90° East 230 265 6,600 2,557 Climbing Los Angeles Center
Sat 12:27:31 PM 36.0769 -114.9444 86° East 268 308 7,700 3,677 Climbing Los Angeles Center
Sat 12:28:16 PM 36.0856 -114.8850 80° East 265 305 10,400 4,033 Climbing Los Angeles Center
Sat 12:28:32 PM 36.0928 -114.8486 76° East 271 312 11,800 3,097 Climbing Los Angeles Center
Sat 12:29:18 PM 36.1022 -114.7900 79° East 280 322 13,600 3,148 Climbing Los Angeles Center
Sat 12:29:33 PM 36.1097 -114.7497 77° East 291 335 15,000 3,677 Climbing Los Angeles Center
Sat 12:30:20 PM 36.1222 -114.6700 79° East 297 342 17,400 2,202 Climbing Los Angeles Center
Sat 12:31:22 PM 36.1392 -114.5656 79° East 307 353 19,000 1,597 Climbing Los Angeles Center
Sat 12:32:24 PM 36.1594 -114.4392 79° East 369 425 20,700 2,129 Climbing Los Angeles Center
Sat 12:33:26 PM 36.1822 -114.3058 78° East 393 452 23,400 2,565 Climbing Los Angeles Center
Sat 12:34:28 PM 36.2017 -114.1711 80° East 398 458 26,000 2,371 Climbing Los Angeles Center
Sat 12:35:30 PM 36.2169 -114.0367 82° East 396 456 28,300 1,707 Climbing Los Angeles Center
Sat 12:36:31 PM 36.2342 -113.8939 81° East 415 478 29,500 1,366 Climbing Los Angeles Center
Sat 12:37:33 PM 36.2558 -113.7144 81° East 437 503 31,100 1,500 Climbing Los Angeles Center
Sat 12:38:35 PM 36.2728 -113.5622 82° East 445 512 32,600 1,452 Climbing Los Angeles Center
Sat 12:39:37 PM 36.2906 -113.4075 82° East 454 522 34,100 1,161 Climbing Los Angeles Center
Sat 12:40:39 PM 36.3086 -113.2542 82° East 451 519 35,000 435 Climbing Los Angeles Center
Sat 12:41:41 PM 36.3553 -113.1081 68° East 439 505 35,000  Level Los Angeles Center
Sat 12:42:43 PM 36.4067 -112.9700 65° Northeast 441 507 35,000  Level Los Angeles Center
Sat 12:43:45 PM 36.4575 -112.8308 66° East 443 510 35,000  Level Los Angeles Center
Sat 12:44:47 PM 36.5186 -112.6653 65° Northeast 443 510 35,000  Level Los Angeles Center
Sat 12:45:48 PM 36.5692 -112.5283 65° Northeast 439 505 35,000  Level Los Angeles Center
Sat 12:46:50 PM 36.6200 -112.3917 65° Northeast 437 503 35,000  Level Los Angeles Center
Sat 12:47:52 PM 36.6681 -112.2544 66° East 436 502 35,000  Level Los Angeles Center
Sat 12:48:54 PM 36.7186 -112.1186 65° Northeast 435 501 35,000  Level Los Angeles Center
Sat 12:49:56 PM 36.7772 -111.9558 66° East 433 498 35,000  Level Los Angeles Center
Sat 12:50:58 PM 36.8267 -111.8181 66° East 434 499 35,000  Level Los Angeles Center
Sat 12:52:00 PM 36.8744 -111.6811 66° East 433 498 35,000  Level Los Angeles Center
Sat 12:52:40 PM 36.9044 -111.5983 66° East 436 502 35,000  Level Denver Center
Sat 12:53:42 PM 36.9528 -111.4608 66° East 435 501 35,000  Level Denver Center
Sat 12:54:45 PM 37.0117 -111.2939 66° East 438 504 35,000  Level Denver Center
Sat 12:55:47 PM 37.0594 -111.1547 67° East 437 503 35,000  Level Denver Center
Sat 12:56:49 PM 37.1100 -111.0136 66° East 445 512 35,000  Level Denver Center
Sat 12:57:51 PM 37.1575 -110.8733 67° East 439 505 35,000  Level Denver Center
Sat 12:58:53 PM 37.2067 -110.7325 66° East 442 509 35,000  Level Denver Center
Sat 12:59:55 PM 37.2644 -110.5650 67° East 437 503 35,000  Level Denver Center
Sat 01:00:57 PM 37.3114 -110.4258 67° East 435 501 35,000  Level Denver Center
Sat 01:01:59 PM 37.3603 -110.2856 66° East 439 505 35,000  Level Denver Center
Sat 01:03:01 PM 37.4092 -110.1378 67° East 433 498 35,000  Level Denver Center
Sat 01:04:03 PM 37.4550 -110.0008 67° East 441 507 35,000  Level Denver Center
Sat 01:05:05 PM 37.5086 -109.8444 67° East 437 503 35,000  Level Denver Center
Sat 01:06:07 PM 37.5536 -109.7069 68° East 442 509 35,000  Level Denver Center
Sat 01:07:09 PM 37.6064 -109.5472 67° East 441 507 35,000  Level Denver Center
Sat 01:08:11 PM 37.6525 -109.4089 67° East 445 512 35,000  Level Denver Center
Sat 01:09:13 PM 37.6978 -109.2725 67° East 440 506 35,000  Level Denver Center
Sat 01:10:15 PM 37.7506 -109.1128 67° East 440 506 35,000  Level Denver Center
Sat 01:11:17 PM 37.7939 -108.9756 68° East 439 505 35,000  Level Denver Center
Sat 01:12:19 PM 37.8475 -108.8178 67° East 438 504 35,000  Level Denver Center
Sat 01:13:21 PM 37.8800 -108.6794 73° East 438 504 35,000  Level Denver Center
Sat 01:14:23 PM 37.9100 -108.5114 77° East 439 505 35,000  Level Denver Center
Sat 01:15:25 PM 37.9361 -108.3661 77° East 441 507 35,000  Level Denver Center
Sat 01:16:27 PM 37.9683 -108.1953 76° East 443 510 35,000  Level Denver Center
Sat 01:17:29 PM 37.9953 -108.0481 77° East 446 513 35,000  Level Denver Center
Sat 01:18:31 PM 38.0258 -107.8756 77° East 448 516 35,000  Level Denver Center
Sat 01:19:33 PM 38.0519 -107.7272 77° East 449 517 35,000  Level Denver Center
Sat 01:20:35 PM 38.0789 -107.5803 77° East 449 517 35,000 629 Level Denver Center
Sat 01:21:37 PM 38.1083 -107.4081 78° East 449 517 36,300 976 Climbing Denver Center
Sat 01:22:38 PM 38.1331 -107.2661 77° East 439 505 37,000 683 Climbing Denver Center
Sat 01:23:40 PM 38.1617 -107.1039 77° East 448 516 37,700 726 Climbing Denver Center
Sat 01:24:42 PM 38.1889 -106.9444 78° East 460 529 38,500 629 Climbing Denver Center
Sat 01:25:44 PM 38.2192 -106.7597 78° East 465 535 39,000 242 Climbing Denver Center
Sat 01:26:46 PM 38.2447 -106.6025 78° East 473 544 39,000  Level Denver Center
Sat 01:27:48 PM 38.2764 -106.4225 77° East 475 547 39,000  Level Denver Center
Sat 01:28:50 PM 38.3028 -106.2567 78° East 478 550 39,000  Level Denver Center
Sat 01:29:52 PM 38.3300 -106.0967 78° East 481 554 39,000  Level Denver Center
Sat 01:30:54 PM 38.3594 -105.9125 78° East 477 549 39,000  Level Denver Center
Sat 01:31:56 PM 38.3881 -105.7367 78° East 477 549 39,000  Level Denver Center
Sat 01:32:58 PM 38.4136 -105.5728 79° East 475 547 39,000  Level Denver Center
Sat 01:34:00 PM 38.4392 -105.4086 79° East 474 545 39,000  Level Denver Center
Sat 01:35:02 PM 38.4653 -105.2419 79° East 480 552 39,000  Level Denver Center
Sat 01:36:04 PM 38.4914 -105.0767 79° East 479 551 39,000  Level Denver Center
Sat 01:37:06 PM 38.5217 -104.8761 79° East 482 555 39,000  Level Denver Center
Sat 01:38:07 PM 38.5478 -104.7075 79° East 486 559 39,000  Level Denver Center
Sat 01:39:09 PM 38.5717 -104.5403 80° East 483 556 39,000  Level Denver Center
Sat 01:40:11 PM 38.5972 -104.3739 79° East 482 555 39,000  Level Denver Center
Sat 01:41:13 PM 38.6217 -104.2064 79° East 482 555 39,000  Level Denver Center
Sat 01:42:15 PM 38.6483 -104.0167 80° East 477 549 39,000  Level Denver Center
Sat 01:43:17 PM 38.6708 -103.8553 80° East 481 554 39,000  Level Denver Center
Sat 01:44:19 PM 38.6981 -103.6675 79° East 481 554 39,000  Level Denver Center
Sat 01:45:21 PM 38.7206 -103.5058 80° East 481 554 39,000  Level Denver Center
Sat 01:46:23 PM 38.7450 -103.3386 79° East 480 552 39,000  Level Denver Center
Sat 01:47:25 PM 38.7667 -103.1706 81° East 480 552 39,000  Level Denver Center
Sat 01:48:27 PM 38.7956 -102.9664 80° East 487 560 39,000  Level Denver Center
Sat 01:49:29 PM 38.8169 -102.7956 81° East 488 562 39,000  Level Denver Center
Sat 01:50:31 PM 38.8411 -102.6172 80° East 492 566 39,000  Level Denver Center
Sat 01:51:33 PM 38.8614 -102.4536 81° East 486 559 39,000  Level Denver Center
Sat 01:52:35 PM 38.8867 -102.2633 80° East 484 557 39,000  Level Denver Center
Sat 01:53:36 PM 38.9083 -102.1006 80° East 484 557 39,000  Level Denver Center
Sat 01:54:38 PM 38.9275 -101.9353 81° East 488 562 39,000  Level Denver Center
Sat 01:55:40 PM 38.9525 -101.7436 80° East 488 562 39,000  Level Denver Center
Sat 01:56:42 PM 38.9719 -101.5808 81° East 482 555 39,000  Level Denver Center
Sat 01:57:44 PM 38.9956 -101.3883 81° East 487 560 39,000  Level Denver Center
Sat 01:58:46 PM 39.0153 -101.2244 81° East 485 558 39,000  Level Denver Center
Sat 01:59:48 PM 39.0392 -101.0317 81° East 486 559 39,000  Level Denver Center
Sat 02:00:50 PM 39.0583 -100.8653 82° East 490 564 39,000  Level Denver Center
Sat 02:01:52 PM 39.0803 -100.6708 82° East 492 566 39,000  Level Denver Center
Sat 02:02:53 PM 39.0994 -100.5039 82° East 494 568 39,000  Level Denver Center
Sat 02:03:55 PM 39.1217 -100.3056 82° East 500 575 39,000  Level Denver Center
Sat 02:04:57 PM 39.1406 -100.1317 82° East 507 583 39,000  Level Denver Center
Sat 02:05:59 PM 39.1592 -99.9558 82° East 510 587 39,000  Level Denver Center
Sat 02:07:01 PM 39.1814 -99.7550 82° East 508 585 39,000  Level Denver Center
Sat 02:08:03 PM 39.1997 -99.5794 82° East 514 592 39,000  Level Denver Center
Sat 02:09:04 PM 39.2197 -99.3819 82° East 512 589 39,000  Level Denver Center
Sat 02:10:06 PM 39.2367 -99.2083 83° East 511 588 39,000  Level Denver Center
Sat 02:11:08 PM 39.2569 -99.0094 82° East 505 581 39,000  Level Denver Center
Sat 02:12:10 PM 39.2753 -98.8281 83° East 498 573 39,000  Level Denver Center
Sat 02:13:12 PM 39.2919 -98.6508 83° East 498 573 39,000  Level Denver Center
Sat 02:14:13 PM 39.3092 -98.4736 83° East 498 573 39,000  Level Denver Center
Sat 02:15:15 PM 39.3250 -98.2972 83° East 496 571 39,000  Level Denver Center
Sat 02:16:41 PM 39.3486 -98.0483 83° East 495 570 39,000  Level Kansas City Center
Sat 02:17:41 PM 39.3667 -97.8464 83° East 505 581 39,000  Level Kansas City Center
Sat 02:18:44 PM 39.3814 -97.6869 83° East 509 586 39,000  Level Kansas City Center
Sat 02:19:44 PM 39.3967 -97.4997 84° East 507 583 39,000  Level Kansas City Center
Sat 02:20:46 PM 39.4133 -97.2981 84° East 506 582 39,000  Level Kansas City Center
Sat 02:21:49 PM 39.4283 -97.1239 84° East 508 585 39,000  Level Kansas City Center
Sat 02:22:51 PM 39.4464 -96.9228 83° East 505 581 39,000  Level Kansas City Center
Sat 02:23:52 PM 39.4597 -96.7517 84° East 501 577 39,000  Level Kansas City Center
Sat 02:24:53 PM 39.4736 -96.5794 84° East 502 578 39,000  Level Kansas City Center
Sat 02:25:54 PM 39.4881 -96.3886 84° East 507 583 39,000  Level Kansas City Center
Sat 02:26:57 PM 39.5014 -96.2086 84° East 504 580 39,000  Level Kansas City Center
Sat 02:27:59 PM 39.5153 -96.0039 85° East 499 574 39,000  Level Kansas City Center
Sat 02:29:01 PM 39.5286 -95.8336 84° East 496 571 39,000  Level Kansas City Center
Sat 02:30:02 PM 39.5397 -95.6622 85° East 496 571 39,000  Level Kansas City Center
Sat 02:31:02 PM 39.5542 -95.4611 85° East 498 573 39,000  Level Kansas City Center
Sat 02:32:03 PM 39.5653 -95.2897 85° East 496 571 39,000  Level Kansas City Center
Sat 02:33:06 PM 39.5789 -95.0897 85° East 494 568 39,000  Level Kansas City Center
Sat 02:34:06 PM 39.5889 -94.9208 86° East 489 563 39,000  Level Kansas City Center
Sat 02:35:10 PM 39.5992 -94.7525 85° East 488 562 39,000  Level Kansas City Center
Sat 02:36:11 PM 39.6117 -94.5572 85° East 486 559 39,000  Level Kansas City Center
Sat 02:37:11 PM 39.6217 -94.3914 85° East 482 555 39,000  Level Kansas City Center
Sat 02:38:12 PM 39.6322 -94.2008 86° East 475 547 39,000  Level Kansas City Center
Sat 02:39:17 PM 39.6422 -94.0358 85° East 478 550 39,000  Level Kansas City Center
Sat 02:40:18 PM 39.6514 -93.8708 86° East 479 551 39,000  Level Kansas City Center
Sat 02:41:19 PM 39.6608 -93.6814 86° East 483 556 39,000  Level Kansas City Center
Sat 02:42:20 PM 39.6706 -93.5108 86° East 480 552 39,000  Level Kansas City Center
Sat 02:43:21 PM 39.6786 -93.3394 86° East 482 555 39,000  Level Kansas City Center
Sat 02:44:24 PM 39.6869 -93.1692 86° East 479 551 39,000  Level Kansas City Center
Sat 02:45:25 PM 39.6950 -92.9967 86° East 484 557 39,000  Level Kansas City Center
Sat 02:46:26 PM 39.7036 -92.7892 87° East 486 559 39,000  Level Kansas City Center
Sat 02:47:27 PM 39.7111 -92.6192 87° East 482 555 39,000  Level Kansas City Center
Sat 02:48:29 PM 39.7192 -92.4478 86° East 482 555 39,000  Level Kansas City Center
Sat 02:49:32 PM 39.7261 -92.2753 87° East 483 556 39,000  Level Kansas City Center
Sat 02:50:33 PM 39.7317 -92.1056 88° East 481 554 39,000  Level Kansas City Center
Sat 02:51:33 PM 39.7406 -91.9011 87° East 479 551 39,000  Level Kansas City Center
Sat 02:52:34 PM 39.7464 -91.7319 87° East 478 550 39,000  Level Kansas City Center
Sat 02:53:36 PM 39.7519 -91.5642 87° East 472 543 39,000  Level Kansas City Center
Sat 02:54:39 PM 39.7581 -91.3958 87° East 472 543 39,000  Level Kansas City Center
Sat 02:55:40 PM 39.7642 -91.2153 87° East 470 541 39,000  Level Kansas City Center
Sat 02:56:42 PM 39.7681 -91.0614 88° East 467 537 39,000  Level Kansas City Center
Sat 02:57:43 PM 39.7744 -90.8822 87° East 467 537 39,000  Level Kansas City Center
Sat 02:58:44 PM 39.7789 -90.7125 88° East 469 540 39,000  Level Kansas City Center
Sat 02:59:47 PM 39.7828 -90.5408 88° East 474 545 39,000  Level Kansas City Center
Sat 03:00:47 PM 39.7881 -90.3356 88° East 475 547 39,000  Level Kansas City Center
Sat 03:01:50 PM 39.7931 -90.1633 88° East 478 550 39,000  Level Kansas City Center
Sat 03:02:49 PM 39.7958 -89.9894 89° East 481 554 39,000  Level Kansas City Center
Sat 03:03:53 PM 39.7986 -89.8164 89° East 481 554 39,000  Level Kansas City Center
Sat 03:04:54 PM 39.7997 -89.6425 89° East 482 555 39,000  Level Kansas City Center
Sat 03:05:55 PM 39.7744 -89.4786 101° East 466 536 39,000  Level Kansas City Center
Sat 03:06:56 PM 39.7475 -89.3144 102° East 466 536 39,000  Level Kansas City Center
Sat 03:07:57 PM 39.7153 -89.1214 102° East 462 532 39,000  Level Kansas City Center
Sat 03:09:01 PM 39.6900 -88.9603 101° East 458 527 39,000  Level Kansas City Center
Sat 03:10:01 PM 39.6622 -88.8003 103° East 456 525 39,000  Level Kansas City Center
Sat 03:11:02 PM 39.6525 -88.6347 94° East 463 533 39,000  Level Kansas City Center
Sat 03:12:03 PM 39.6503 -88.4447 91° East 469 540 39,000  Level Kansas City Center
Sat 03:13:04 PM 39.6636 -88.2961 83° East 468 539 39,000  Level Kansas City Center
Sat 03:14:05 PM 39.6811 -88.1039 83° East 472 543 39,000  Level Kansas City Center
Sat 03:15:08 PM 39.6958 -87.9331 84° East 473 544 39,000  Level Kansas City Center
Sat 03:15:52 PM 39.7058 -87.7931 85° East 477 549 39,000  Level Indianapolis Center
Sat 03:16:54 PM 39.7211 -87.6197 83° East 482 555 39,000  Level Indianapolis Center
Sat 03:17:55 PM 39.7336 -87.4458 85° East 485 558 39,000  Level Indianapolis Center
Sat 03:18:56 PM 39.7497 -87.2717 83° East 487 560 39,000  Level Indianapolis Center
Sat 03:19:58 PM 39.7614 -87.0983 85° East 483 556 39,000  Level Indianapolis Center
Sat 03:20:59 PM 39.7744 -86.9239 84° East 485 558 39,000 -98 Level Indianapolis Center
Sat 03:22:01 PM 39.7881 -86.7492 84° East 487 560 38,800 -585 Descending Indianapolis Center
Sat 03:23:02 PM 39.8000 -86.5767 85° East 480 552 37,800 -927 Descending Indianapolis Center
Sat 03:24:04 PM 39.8131 -86.4011 84° East 482 555 36,900 -878 Descending Indianapolis Center
Sat 03:25:05 PM 39.8456 -86.2236 77° East 487 560 36,000 -439 Descending Indianapolis Center
Sat 03:26:07 PM 39.8825 -86.0544 74° East 484 557 36,000 -146 Level Indianapolis Center
Sat 03:27:08 PM 39.9164 -85.8889 75° East 478 550 35,700 -1,317 Descending Indianapolis Center
Sat 03:28:10 PM 39.9581 -85.6892 75° East 477 549 33,300 -2,195 Descending Indianapolis Center
Sat 03:29:11 PM 39.9917 -85.5264 75° East 472 543 31,200 -2,000 Descending Indianapolis Center
Sat 03:30:13 PM 40.0253 -85.3669 75° East 461 531 29,200 -1,073 Descending Indianapolis Center
Sat 03:31:14 PM 40.0581 -85.2042 75° East 462 532 29,000 -293 Descending Indianapolis Center
Sat 03:32:16 PM 40.0928 -85.0319 75° East 484 557 28,600 -683 Descending Indianapolis Center
Sat 03:33:17 PM 40.1253 -84.8633 76° East 484 557 27,600 -976 Descending Indianapolis Center
Sat 03:34:19 PM 40.1589 -84.6967 75° East 478 550 26,600 -1,024 Descending Indianapolis Center
Sat 03:35:20 PM 40.1928 -84.5322 75° East 471 542 25,500 -1,122 Descending Indianapolis Center
Sat 03:36:22 PM 40.2300 -84.3397 76° East 457 526 24,300 -976 Descending Indianapolis Center
Sat 03:37:23 PM 40.2603 -84.1842 76° East 445 512 23,500 -1,463 Descending Indianapolis Center
Sat 03:38:25 PM 40.2872 -84.0283 77° East 438 504 21,300 -2,488 Descending Indianapolis Center
Sat 03:39:26 PM 40.3206 -83.8739 74° East 438 504 18,400 -2,917 Descending Indianapolis Center
Sat 03:39:37 PM 40.3267 -83.8408 76° East 441 507 17,800 -2,613 Descending Indianapolis Center
Sat 03:40:28 PM 40.3511 -83.7194 75° East 436 502 15,700 -2,507 Descending Indianapolis Center
Sat 03:40:44 PM 40.3614 -83.6656 76° East 431 496 15,000 -2,066 Descending Indianapolis Center
Sat 03:41:29 PM 40.3797 -83.5719 76° East 419 482 13,600 -2,066 Descending Indianapolis Center
Sat 03:41:45 PM 40.3900 -83.5247 74° East 399 459 12,900 -2,066 Descending Indianapolis Center
Sat 03:42:30 PM 40.4078 -83.4350 75° East 393 452 11,500 -1,747 Descending Indianapolis Center
Sat 03:43:04 PM 40.4008 -83.3533 96° East 359 413 10,600 -1,065 Descending Indianapolis Center
Sat 03:43:32 PM 40.3794 -83.3156 127° Southeast 359 413 10,400 -600 Descending Indianapolis Center
Sat 03:44:04 PM 40.3447 -83.2589 129° Southeast 301 346 10,000 -689 Descending Indianapolis Center
Sat 03:44:33 PM 40.3250 -83.2272 129° Southeast 316 364 9,700 -1,279 Descending Indianapolis Center
Sat 03:45:05 PM 40.2900 -83.1728 130° Southeast 299 344 8,700 -1,452 Descending Indianapolis Center
Sat 03:45:35 PM 40.2719 -83.1419 127° Southeast 305 351 8,200 -1,475 Descending Indianapolis Center
Sat 03:46:06 PM 40.2333 -83.0842 131° Southeast 295 339 7,200 -1,672 Descending Indianapolis Center
Sat 03:46:36 PM 40.2100 -83.0444 128° Southeast 294 338 6,500 -1,000 Descending Indianapolis Center
Sat 03:47:06 PM 40.1822 -83.0044 132° Southeast 285 328 6,200 -484 Descending Indianapolis Center
Sat 03:47:38 PM 40.1611 -82.9661 126° Southeast 285 328 6,000 -279 Descending Indianapolis Center
Sat 03:47:49 PM 40.1533 -82.9533 129° Southeast 256 295 6,000  Level Indianapolis Center
Sat 03:48:39 PM 40.1192 -82.8997 130° Southeast 254 292 6,000  Level Indianapolis Center
Sat 03:48:44 PM 40.1150 -82.8925 127° Southeast 232 267 6,000 -774 Level Indianapolis Center
Sat 03:49:41 PM 40.1003 -82.8158 104° East 247 284 5,200 -759 Descending Indianapolis Center
Sat 03:50:03 PM 40.0944 -82.7769 101° East 250 288 5,000 -787 Descending Indianapolis Center
Sat 03:50:42 PM 40.0878 -82.7272 100° East 248 285 4,400 -1,100 Descending Indianapolis Center
Sat 03:51:03 PM 40.0817 -82.6875 101° East 248 285 3,900 -857 Descending Indianapolis Center
Sat 03:51:52 PM 40.0417 -82.6675 159° South 221 254 3,400 -529 Descending Indianapolis Center
Sat 03:52:45 PM 39.9950 -82.6739 186° South 228 262 3,000 -329 Descending Indianapolis Center
Sat 03:53:05 PM 39.9858 -82.7025 247° West 189 217 3,000 -197 Level Indianapolis Center
Sat 03:53:46 PM 39.9817 -82.7350 261° West 193 222 2,800 -444 Descending Indianapolis Center
Sat 03:53:59 PM 39.9847 -82.7597 279° West 168 193 2,600 -774 Descending Indianapolis Center
Sat 03:54:48 PM 39.9872 -82.7953 275° West 175 201 2,000 -735 Descending Indianapolis Center
Sat 03:56:00 PM 39.9833 -82.8833 153° Southeast  Level FlightAware Approximate

Login

Don't have an account? Register now (free) for customized features, flight alerts, and more!